Time;durP1;ratioP1;P1;durP2;ratioP2;P2;SDS_P1;SDS_P2;PMS_P1;PMS_P2;Temp;Humidity;BMP_temperature;BMP_pressure;BME280_temperature;BME280_humidity;BME280_pressure;Samples;Min_cycle;Max_cycle;Signal;HPM_P1;HPM_P2
2023/01/28 00:01:15;;;;;;;32.98;13.48;;;;;;;-2.07;82.92;100826.81;1683500;85;21149;-60
2023/01/28 00:03:44;;;;;;;32.73;13.65;;;;;;;-2.08;83.04;100822.41;1687881;85;21151;-61
2023/01/28 00:06:15;;;;;;;30.32;14.10;;;;;;;-2.11;83.13;100822.62;1689666;85;21142;-62
2023/01/28 00:08:44;;;;;;;32.80;13.83;;;;;;;-2.13;83.32;100820.52;1691429;84;21597;-61
2023/01/28 00:11:16;;;;;;;32.33;13.60;;;;;;;-2.11;83.47;100818.11;1691330;85;21633;-61
2023/01/28 00:13:45;;;;;;;29.12;12.18;;;;;;;-2.06;83.55;100821.33;1691420;84;21661;-61
2023/01/28 00:16:14;;;;;;;29.98;12.95;;;;;;;-2.04;83.38;100827.94;1691458;85;21163;-62
2023/01/28 00:18:44;;;;;;;31.07;12.60;;;;;;;-2.05;83.35;100819.51;1691585;85;21666;-61
2023/01/28 00:21:14;;;;;;;30.82;13.18;;;;;;;-2.07;83.34;100820.09;1691432;85;21091;-61
2023/01/28 00:23:50;;;;;;;30.72;12.90;;;;;;;-2.08;83.42;100817.89;1668627;85;21183;-61
2023/01/28 00:26:19;;;;;;;26.90;12.75;;;;;;;-2.08;83.31;100823.27;1691666;84;21123;-61
2023/01/28 00:28:51;;;;;;;29.63;12.28;;;;;;;-2.11;83.43;100819.45;1668683;85;21559;-61
2023/01/28 00:31:26;;;;;;;27.13;12.63;;;;;;;-2.11;83.57;100822.14;1691453;85;21091;-61
2023/01/28 00:33:56;;;;;;;31.33;13.10;;;;;;;-2.07;83.62;100824.98;1668073;85;21156;-61
2023/01/28 00:36:27;;;;;;;28.12;12.00;;;;;;;-2.04;83.64;100826.59;1691550;85;21112;-62
2023/01/28 00:38:58;;;;;;;27.70;12.07;;;;;;;-2.04;83.51;100822.56;1691498;85;21397;-61
2023/01/28 00:41:29;;;;;;;29.15;13.48;;;;;;;-2.03;83.62;100821.60;1691781;85;21140;-61
2023/01/28 00:44:01;;;;;;;29.90;11.75;;;;;;;-1.98;83.68;100812.73;1691547;84;21213;-61
2023/01/28 00:46:30;;;;;;;27.40;11.57;;;;;;;-1.94;83.50;100814.27;1691653;85;21123;-61
2023/01/28 00:49:00;;;;;;;26.20;11.48;;;;;;;-1.95;83.54;100808.05;1668275;85;21124;-62
2023/01/28 00:51:31;;;;;;;23.87;10.68;;;;;;;-1.94;83.49;100802.19;1666879;85;21496;-63
2023/01/28 00:54:00;;;;;;;25.97;11.48;;;;;;;-1.90;83.47;100810.89;1691728;85;21563;-60
2023/01/28 00:56:29;;;;;;;27.85;11.50;;;;;;;-1.93;83.35;100805.25;1691637;85;21096;-60
2023/01/28 00:58:58;;;;;;;25.05;10.90;;;;;;;-1.89;83.42;100801.38;1691531;85;21104;-60
2023/01/28 01:01:28;;;;;;;25.35;10.82;;;;;;;-1.89;83.29;100810.78;1691642;85;21120;-60
2023/01/28 01:04:09;;;;;;;27.07;11.48;;;;;;;-1.92;83.20;100809.66;1649609;86;21244;-62
2023/01/28 01:06:34;;;;;;;23.18;10.25;;;;;;;-1.97;83.18;100810.44;1654985;87;21277;-61
2023/01/28 01:09:05;;;;;;;28.17;11.28;;;;;;;-1.94;83.35;100815.62;1655962;87;21218;-62
2023/01/28 01:11:36;;;;;;;27.00;11.50;;;;;;;-1.93;83.26;100818.20;1655996;87;21134;-61
2023/01/28 01:14:06;;;;;;;26.73;11.15;;;;;;;-1.93;83.32;100822.70;1656164;86;21146;-61
2023/01/28 01:16:37;;;;;;;26.33;10.85;;;;;;;-1.93;83.40;100818.68;1655968;87;21162;-62
2023/01/28 01:19:08;;;;;;;27.82;11.78;;;;;;;-1.90;83.46;100811.75;1656224;87;21222;-61
2023/01/28 01:21:37;;;;;;;25.60;11.50;;;;;;;-1.87;83.38;100799.94;1656169;87;21186;-61
2023/01/28 01:24:07;;;;;;;24.90;10.63;;;;;;;-1.90;83.32;100797.47;1655954;87;21203;-63
2023/01/28 01:26:38;;;;;;;23.65;10.30;;;;;;;-1.93;83.39;100794.03;1655965;86;21174;-64
2023/01/28 01:29:08;;;;;;;25.35;11.00;;;;;;;-1.92;83.46;100797.09;1655997;87;21205;-64
2023/01/28 01:31:38;;;;;;;28.47;11.73;;;;;;;-1.91;83.51;100800.63;1655985;87;21185;-64
2023/01/28 01:34:08;;;;;;;25.27;10.90;;;;;;;-1.90;83.63;100805.52;1656041;87;21170;-63
2023/01/28 01:36:37;;;;;;;25.62;11.30;;;;;;;-1.87;83.72;100815.56;1656206;86;21207;-63
2023/01/28 01:39:06;;;;;;;25.75;11.83;;;;;;;-1.85;83.48;100802.89;1656040;86;21238;-63
2023/01/28 01:41:35;;;;;;;24.05;10.75;;;;;;;-1.90;83.27;100806.87;1656129;87;21640;-63
2023/01/28 01:44:08;;;;;;;22.98;10.90;;;;;;;-1.97;83.27;100805.06;1656146;87;21159;-63
2023/01/28 01:46:47;;;;;;;23.15;10.05;;;;;;;-1.98;83.33;100802.00;1653191;87;21177;-62
2023/01/28 01:53:19;;;;;;;26.05;11.43;;;;;;;-1.99;83.37;100802.97;1656189;86;21174;-62
2023/01/28 01:55:50;;;;;;;27.42;11.18;;;;;;;-1.95;83.46;100795.97;1655948;87;21158;-63
2023/01/28 01:58:22;;;;;;;27.55;11.90;;;;;;;-1.95;83.45;100794.62;1655920;87;21166;-63
2023/01/28 02:00:51;;;;;;;26.37;11.68;;;;;;;-1.92;83.49;100802.94;1655955;87;21174;-62
2023/01/28 02:03:25;;;;;;;27.10;10.80;;;;;;;-1.88;83.46;100800.90;1658845;84;21171;-62
2023/01/28 02:05:54;;;;;;;23.12;11.08;;;;;;;-1.87;83.31;100796.77;1683710;85;21191;-62
2023/01/28 02:08:26;;;;;;;22.62;10.35;;;;;;;-1.86;83.30;100800.31;1683544;85;21139;-63
2023/01/28 02:11:02;;;;;;;22.40;10.03;;;;;;;-1.87;83.17;100794.08;1683590;85;21160;-62
2023/01/28 02:13:39;;;;;;;24.00;10.82;;;;;;;-1.92;82.95;100789.03;1683739;85;21101;-63
2023/01/28 02:16:08;;;;;;;24.25;10.25;;;;;;;-1.98;82.92;100787.23;1683784;85;21124;-63
2023/01/28 02:18:36;;;;;;;20.90;9.75;;;;;;;-2.00;82.88;100781.11;1683544;85;21108;-63
2023/01/28 02:21:29;;;;;;;26.93;11.25;;;;;;;-2.00;82.79;100782.45;1683578;85;21104;-64
2023/01/28 02:24:22;;;;;;;22.85;11.30;;;;;;;-1.99;82.78;100789.55;1683270;85;21109;-62
2023/01/28 02:27:02;;;;;;;25.45;11.45;;;;;;;-2.01;82.73;100790.14;1667885;85;21092;-63
2023/01/28 02:29:56;;;;;;;27.80;10.55;;;;;;;-2.02;82.71;100787.08;1683579;85;21147;-62
2023/01/28 02:32:47;;;;;;;24.47;11.22;;;;;;;-2.01;82.82;100788.31;1683578;85;21154;-64
2023/01/28 02:35:36;;;;;;;24.32;10.80;;;;;;;-2.02;82.89;100781.22;1683596;85;21143;-64
2023/01/28 02:38:11;;;;;;;23.22;11.40;;;;;;;-2.00;82.90;100777.09;1683508;85;21096;-62
2023/01/28 02:41:01;;;;;;;25.90;10.88;;;;;;;-2.00;82.85;100776.60;1683879;85;21183;-64
2023/01/28 02:43:34;;;;;;;23.75;11.20;;;;;;;-1.99;82.85;100774.77;1683620;85;21552;-63
2023/01/28 02:49:25;;;;;;;24.43;10.82;;;;;;;-1.92;82.87;100780.13;1683608;85;21144;-64
2023/01/28 02:52:14;;;;;;;21.93;10.30;;;;;;;-1.92;82.70;100780.13;1683863;85;21593;-62
2023/01/28 02:55:05;;;;;;;24.32;9.95;;;;;;;-1.90;82.59;100774.16;1661938;86;21166;-63
2023/01/28 02:58:05;;;;;;;25.77;10.53;;;;;;;-1.92;82.41;100776.95;1662123;86;21831;-63
2023/01/28 03:00:45;;;;;;;23.15;10.68;;;;;;;-1.94;82.44;100779.37;1643242;87;21565;-62
2023/01/28 03:03:27;;;;;;;27.50;11.20;;;;;;;-1.92;82.40;100778.78;1607012;89;21157;-62
2023/01/28 03:06:05;;;;;;;24.18;10.93;;;;;;;-1.96;82.27;100770.53;1614038;87;21202;-63
2023/01/28 03:37:53;;;;;;;24.72;11.55;;;;;;;-1.92;82.87;100762.18;1671220;85;21244;-63
2023/01/28 03:40:23;;;;;;;24.00;10.25;;;;;;;-1.90;82.78;100763.41;1667111;85;21169;-64
2023/01/28 03:42:55;;;;;;;26.30;11.75;;;;;;;-1.93;82.51;100764.98;1691921;84;21172;-63
2023/01/28 03:45:29;;;;;;;22.58;10.25;;;;;;;-1.96;82.61;100767.84;1690920;85;21209;-63
2023/01/28 03:47:58;;;;;;;23.87;10.70;;;;;;;-1.96;82.59;100755.77;1691736;85;21134;-62
2023/01/28 03:50:29;;;;;;;25.32;10.98;;;;;;;-1.96;82.66;100762.48;1691701;85;21101;-62
2023/01/28 03:53:10;;;;;;;25.85;11.48;;;;;;;-1.93;82.64;100771.69;1691992;85;21569;-63
2023/01/28 03:55:32;;;;;;;23.98;11.30;;;;;;;-1.93;82.68;100769.00;1690951;85;21146;-65
2023/01/28 03:58:02;;;;;;;25.37;11.22;;;;;;;-1.89;82.74;100774.53;1691854;84;21161;-63
2023/01/28 04:00:36;;;;;;;25.45;10.90;;;;;;;-1.85;82.66;100769.31;1691657;85;21137;-63
2023/01/28 04:03:15;;;;;;;28.65;12.07;;;;;;;-1.84;82.63;100763.46;1691919;85;21168;-63
2023/01/28 04:05:35;;;;;;;28.98;11.90;;;;;;;-1.85;82.47;100773.34;1690297;83;21102;-62
2023/01/28 04:08:04;;;;;;;27.62;11.80;;;;;;;-1.83;82.51;100771.41;1691718;85;21165;-64
2023/01/28 04:10:52;;;;;;;27.20;11.40;;;;;;;-1.82;82.53;100775.81;1691723;84;21113;-64
2023/01/28 04:13:26;;;;;;;23.47;10.40;;;;;;;-1.84;82.29;100776.41;1691381;85;21204;-62
2023/01/28 04:15:56;;;;;;;24.55;10.25;;;;;;;-1.86;82.20;100782.86;1691864;85;21518;-63
2023/01/28 04:18:29;;;;;;;27.70;11.53;;;;;;;-1.87;82.14;100782.00;1691970;85;21563;-63
2023/01/28 04:20:59;;;;;;;26.52;11.60;;;;;;;-1.88;82.07;100784.30;1665302;85;21186;-62
2023/01/28 04:23:30;;;;;;;24.77;10.68;;;;;;;-1.86;82.13;100786.40;1691730;84;21138;-63
2023/01/28 04:26:00;;;;;;;23.15;10.43;;;;;;;-1.83;81.99;100792.89;1691959;84;21117;-63
2023/01/28 04:28:29;;;;;;;21.95;10.08;;;;;;;-1.82;81.87;100791.92;1691641;85;21533;-64
2023/01/28 04:31:01;;;;;;;21.62;9.88;;;;;;;-1.84;81.64;100792.52;1666435;85;21161;-62
2023/01/28 04:33:44;;;;;;;20.57;10.00;;;;;;;-1.87;81.49;100791.39;1691745;84;21553;-63
2023/01/28 04:36:28;;;;;;;22.42;10.08;;;;;;;-1.89;81.50;100801.87;1689880;85;21122;-64
2023/01/28 04:39:16;;;;;;;23.38;10.60;;;;;;;-1.92;81.44;100795.75;1691748;84;21121;-64
2023/01/28 04:42:04;;;;;;;22.27;8.55;;;;;;;-1.94;81.43;100791.45;1690434;85;21268;-62
2023/01/28 04:44:37;;;;;;;23.87;10.60;;;;;;;-1.93;81.63;100793.17;1689281;85;21567;-62
2023/01/28 04:47:19;;;;;;;22.37;10.72;;;;;;;-1.86;81.65;100797.14;1681064;85;21223;-63
2023/01/28 04:50:01;;;;;;;25.40;11.30;;;;;;;-1.87;81.54;100799.45;1653015;86;21170;-63
2023/01/28 04:52:39;;;;;;;22.77;10.65;;;;;;;-1.89;81.47;100801.38;1691017;85;21201;-63
2023/01/28 04:55:20;;;;;;;23.52;10.15;;;;;;;-1.89;81.43;100806.76;1690882;85;21158;-63
2023/01/28 04:57:51;;;;;;;23.57;9.98;;;;;;;-1.89;81.51;100800.52;1691955;84;21231;-62
2023/01/28 05:00:21;;;;;;;24.43;11.08;;;;;;;-1.86;81.53;100805.68;1691850;84;21150;-63
2023/01/28 05:02:51;;;;;;;26.55;12.40;;;;;;;-1.86;81.37;100801.66;1691892;85;21189;-62
2023/01/28 05:05:22;;;;;;;21.55;10.50;;;;;;;-1.86;81.23;100804.34;1676283;83;21102;-63
2023/01/28 05:07:57;;;;;;;22.87;10.20;;;;;;;-1.88;80.99;100811.64;1723762;83;21194;-65
2023/01/28 05:10:26;;;;;;;23.85;9.63;;;;;;;-1.90;80.87;100818.47;1723740;83;21138;-62
2023/01/28 05:12:55;;;;;;;23.02;10.00;;;;;;;-1.89;80.81;100820.18;1698292;83;21138;-62
2023/01/28 05:15:25;;;;;;;21.40;10.38;;;;;;;-1.88;80.78;100818.36;1723799;83;21253;-63
2023/01/28 05:17:58;;;;;;;21.93;9.85;;;;;;;-1.84;80.59;100820.72;1723806;83;21157;-62
2023/01/28 05:20:30;;;;;;;25.12;10.78;;;;;;;-1.83;80.40;100817.55;1723648;83;21534;-64
2023/01/28 05:22:58;;;;;;;24.60;10.75;;;;;;;-1.85;80.30;100807.40;1724026;83;21126;-63
2023/01/28 05:25:30;;;;;;;26.70;10.45;;;;;;;-1.85;80.28;100812.28;1722879;83;21154;-63
2023/01/28 05:27:59;;;;;;;21.27;10.28;;;;;;;-1.84;80.23;100800.58;1724114;83;21224;-63
2023/01/28 05:30:28;;;;;;;25.55;10.65;;;;;;;-1.84;80.25;100801.92;1723987;83;21169;-63
2023/01/28 05:32:57;;;;;;;23.90;10.95;;;;;;;-1.80;80.29;100805.25;1723880;83;21130;-63
2023/01/28 05:35:27;;;;;;;24.07;10.30;;;;;;;-1.79;80.14;100801.59;1723923;83;21113;-62
2023/01/28 05:37:56;;;;;;;23.77;10.30;;;;;;;-1.82;80.03;100797.30;1723822;83;21534;-63
2023/01/28 05:40:27;;;;;;;24.45;10.53;;;;;;;-1.83;79.88;100804.13;1724001;83;21182;-63
2023/01/28 05:42:57;;;;;;;27.10;11.60;;;;;;;-1.87;79.92;100802.14;1724055;83;21110;-62
2023/01/28 05:45:31;;;;;;;23.38;11.12;;;;;;;-1.84;80.01;100803.27;1722513;83;21122;-64
2023/01/28 05:48:03;;;;;;;24.77;10.45;;;;;;;-1.84;79.80;100795.69;1723985;83;21150;-64
2023/01/28 05:50:48;;;;;;;25.60;11.33;;;;;;;-1.85;79.77;100793.97;1723698;83;21122;-63
2023/01/28 05:53:23;;;;;;;23.22;10.65;;;;;;;-1.89;79.72;100791.98;1722746;83;21408;-63
2023/01/28 05:55:53;;;;;;;24.05;10.70;;;;;;;-1.86;79.81;100789.08;1723851;83;21220;-65
2023/01/28 05:58:22;;;;;;;22.35;9.98;;;;;;;-1.87;79.72;100796.77;1723825;83;21138;-71
2023/01/28 06:00:55;;;;;;;23.55;11.03;;;;;;;-1.89;79.64;100789.78;1723909;83;21178;-63
2023/01/28 06:03:28;;;;;;;21.90;10.98;;;;;;;-1.91;79.72;100793.92;1724115;83;21130;-64
2023/01/28 06:05:57;;;;;;;25.72;10.78;;;;;;;-1.90;79.82;100801.01;1722417;83;21141;-64
2023/01/28 06:08:28;;;;;;;24.87;11.38;;;;;;;-1.90;79.83;100796.13;1720708;83;21126;-64
2023/01/28 06:10:57;;;;;;;24.63;11.00;;;;;;;-1.89;79.90;100801.87;1701220;83;21169;-64
2023/01/28 06:13:27;;;;;;;27.00;11.05;;;;;;;-1.89;79.92;100797.84;1720801;83;21154;-63
2023/01/28 06:16:09;;;;;;;26.60;12.07;;;;;;;-1.90;79.99;100798.33;1717702;83;21201;-63
2023/01/28 06:18:46;;;;;;;26.90;11.83;;;;;;;-1.90;80.12;100794.30;1671219;85;21096;-64
2023/01/28 06:21:15;;;;;;;23.42;10.98;;;;;;;-1.91;80.14;100789.89;1683760;85;21127;-63
2023/01/28 06:23:45;;;;;;;24.95;11.55;;;;;;;-1.91;80.13;100795.27;1686376;85;21217;-63
2023/01/28 06:26:14;;;;;;;25.08;11.00;;;;;;;-1.92;80.15;100793.06;1659092;86;21420;-63
2023/01/28 06:28:46;;;;;;;28.80;12.30;;;;;;;-1.88;80.24;100803.11;1683731;85;21102;-64
2023/01/28 06:31:16;;;;;;;22.42;10.40;;;;;;;-1.84;80.25;100799.72;1683550;85;21159;-63
2023/01/28 06:33:46;;;;;;;26.70;11.35;;;;;;;-1.82;80.11;100795.09;1686584;85;21102;-64
2023/01/28 06:36:17;;;;;;;25.75;11.12;;;;;;;-1.82;80.09;100801.33;1659098;86;21586;-64
2023/01/28 06:38:46;;;;;;;25.70;11.05;;;;;;;-1.81;80.01;100799.02;1683519;84;21635;-63
2023/01/28 06:41:15;;;;;;;30.35;12.35;;;;;;;-1.79;80.01;100806.96;1683657;85;21135;-64
2023/01/28 06:43:45;;;;;;;29.27;11.90;;;;;;;-1.78;79.92;100811.36;1686431;85;21185;-64
2023/01/28 06:46:14;;;;;;;25.85;11.28;;;;;;;-1.76;79.92;100821.03;1659184;86;21594;-62
2023/01/28 06:48:45;;;;;;;26.02;11.55;;;;;;;-1.75;79.81;100817.38;1683802;85;21126;-63
2023/01/28 06:51:15;;;;;;;26.00;12.05;;;;;;;-1.76;79.87;100817.00;1683859;85;21200;-63
2023/01/28 06:53:44;;;;;;;27.05;11.22;;;;;;;-1.76;79.84;100814.32;1686276;85;21133;-62
2023/01/28 06:56:14;;;;;;;26.10;11.43;;;;;;;-1.76;79.79;100808.09;1666035;85;21155;-63
2023/01/28 06:58:44;;;;;;;28.80;11.83;;;;;;;-1.79;79.79;100808.30;1683513;85;21559;-63
2023/01/28 07:01:13;;;;;;;27.85;12.10;;;;;;;-1.78;79.89;100813.57;1666168;85;21116;-64
2023/01/28 07:03:44;;;;;;;27.98;13.15;;;;;;;-1.81;79.66;100819.16;1683860;85;21120;-63
2023/01/28 07:06:13;;;;;;;24.30;10.80;;;;;;;-1.84;79.72;100815.83;1687049;85;21107;-62
2023/01/28 07:08:42;;;;;;;31.70;12.28;;;;;;;-1.84;79.72;100823.89;1691430;84;21163;-62
2023/01/28 07:11:10;;;;;;;25.97;11.70;;;;;;;-1.88;79.59;100825.93;1691419;85;21135;-63
2023/01/28 07:13:42;;;;;;;27.20;11.43;;;;;;;-1.93;79.63;100830.77;1691784;84;21123;-63
2023/01/28 07:16:10;;;;;;;22.67;10.35;;;;;;;-2.00;79.55;100832.98;1691467;85;21612;-63
2023/01/28 07:18:41;;;;;;;32.50;11.63;;;;;;;-2.03;79.59;100828.31;1691619;85;21147;-64
2023/01/28 07:21:12;;;;;;;27.67;10.88;;;;;;;-2.08;79.57;100824.61;1691449;85;21155;-64
2023/01/28 07:23:41;;;;;;;26.52;10.75;;;;;;;-2.13;79.70;100823.20;1691515;84;21148;-63
2023/01/28 07:26:10;;;;;;;29.25;12.07;;;;;;;-2.13;79.56;100809.78;1691444;84;21120;-64
2023/01/28 07:28:40;;;;;;;32.80;12.47;;;;;;;-2.19;79.67;100812.41;1691469;85;21084;-65
2023/01/28 07:31:10;;;;;;;26.75;11.50;;;;;;;-2.19;79.83;100823.15;1691586;85;21112;-64
2023/01/28 07:33:39;;;;;;;29.10;11.83;;;;;;;-2.16;80.05;100822.08;1691480;85;21135;-64
2023/01/28 07:36:08;;;;;;;34.27;12.18;;;;;;;-2.17;79.99;100814.51;1691524;85;21151;-64
2023/01/28 07:38:37;;;;;;;34.90;13.55;;;;;;;-2.20;79.92;100812.04;1691397;85;21543;-64
2023/01/28 07:41:08;;;;;;;31.70;11.65;;;;;;;-2.25;79.96;100806.13;1691430;85;21519;-64
2023/01/28 07:43:37;;;;;;;32.90;11.93;;;;;;;-2.31;80.04;100806.07;1691511;85;21131;-64
2023/01/28 07:46:07;;;;;;;36.35;12.90;;;;;;;-2.38;80.10;100811.48;1691435;85;21542;-64
2023/01/28 07:48:38;;;;;;;28.95;12.10;;;;;;;-2.39;80.27;100817.81;1666569;85;21584;-63
2023/01/28 07:51:07;;;;;;;34.73;12.63;;;;;;;-2.42;80.37;100818.02;1691720;85;21132;-64
2023/01/28 07:53:36;;;;;;;35.00;12.65;;;;;;;-2.43;80.39;100815.45;1691800;85;21147;-64
2023/01/28 07:56:06;;;;;;;34.38;13.30;;;;;;;-2.47;80.33;100821.98;1677730;85;21151;-63
2023/01/28 07:58:35;;;;;;;28.17;11.57;;;;;;;-2.50;80.43;100832.44;1691381;84;21589;-63
2023/01/28 08:01:04;;;;;;;39.58;12.85;;;;;;;-2.57;80.47;100836.02;1691599;85;21103;-62
2023/01/28 08:03:35;;;;;;;34.20;13.00;;;;;;;-2.63;80.59;100836.87;1691916;84;21155;-64
2023/01/28 08:06:05;;;;;;;30.08;12.40;;;;;;;-2.65;80.83;100845.52;1690307;85;21121;-63
2023/01/28 08:08:35;;;;;;;29.32;11.63;;;;;;;-2.62;80.98;100845.30;1686762;85;21116;-65
2023/01/28 08:11:09;;;;;;;29.60;11.40;;;;;;;-2.62;80.91;100842.62;1686736;85;21104;-64
2023/01/28 08:13:39;;;;;;;33.75;12.50;;;;;;;-2.64;80.86;100844.06;1686720;85;21131;-64
2023/01/28 08:16:09;;;;;;;27.50;11.70;;;;;;;-2.61;80.94;100843.00;1686925;85;21124;-64
2023/01/28 08:18:39;;;;;;;30.52;12.98;;;;;;;-2.55;80.78;100845.30;1686767;85;21577;-64
2023/01/28 08:21:08;;;;;;;29.00;12.60;;;;;;;-2.56;80.69;100838.22;1686738;85;21603;-62
2023/01/28 08:23:38;;;;;;;28.27;11.70;;;;;;;-2.55;80.49;100846.65;1686776;85;21155;-63
2023/01/28 08:26:09;;;;;;;32.65;13.10;;;;;;;-2.58;80.37;100839.66;1686631;85;21112;-63
2023/01/28 08:28:39;;;;;;;30.65;13.28;;;;;;;-2.61;80.17;100843.00;1686650;85;21168;-63
2023/01/28 08:31:09;;;;;;;28.75;11.68;;;;;;;-2.58;80.22;100846.85;1686744;85;21655;-64
2023/01/28 08:33:38;;;;;;;27.93;11.08;;;;;;;-2.53;80.17;100840.70;1686770;85;21104;-63
2023/01/28 08:36:10;;;;;;;35.28;11.85;;;;;;;-2.53;79.72;100842.03;1686641;85;21140;-63
2023/01/28 08:38:42;;;;;;;32.15;11.65;;;;;;;-2.62;79.68;100846.65;1686885;85;21542;-62
2023/01/28 08:41:11;;;;;;;31.82;11.88;;;;;;;-2.65;79.73;100841.48;1686844;85;21148;-62
2023/01/28 08:43:41;;;;;;;25.60;10.95;;;;;;;-2.63;79.84;100837.74;1686654;85;21088;-61
2023/01/28 08:46:11;;;;;;;28.30;11.85;;;;;;;-2.58;79.73;100836.98;1662330;85;21148;-62
2023/01/28 08:48:41;;;;;;;29.82;11.30;;;;;;;-2.53;79.48;100840.70;1686902;85;21144;-62
2023/01/28 08:51:13;;;;;;;25.20;10.88;;;;;;;-2.53;79.26;100839.84;1681251;85;21128;-63
2023/01/28 08:53:54;;;;;;;27.70;11.88;;;;;;;-2.54;79.05;100835.44;1682149;84;21096;-63
2023/01/28 08:56:26;;;;;;;28.87;11.90;;;;;;;-2.58;78.97;100836.98;1657740;84;21142;-62
2023/01/28 08:58:57;;;;;;;26.17;11.22;;;;;;;-2.59;78.90;100831.23;1715001;84;21157;-63
2023/01/28 09:01:32;;;;;;;26.87;12.37;;;;;;;-2.67;78.56;100827.32;1702828;84;21175;-63
2023/01/28 09:04:18;;;;;;;29.85;11.93;;;;;;;-2.70;79.09;100819.00;1667421;85;21176;-63
2023/01/28 09:06:49;;;;;;;26.37;11.33;;;;;;;-2.64;79.12;100807.00;1662383;85;21199;-64
2023/01/28 09:09:20;;;;;;;29.55;12.00;;;;;;;-2.63;79.14;100808.23;1688334;85;21158;-65
2023/01/28 09:11:50;;;;;;;26.97;11.57;;;;;;;-2.59;79.05;100799.53;1745734;82;21142;-65
2023/01/28 09:14:22;;;;;;;25.60;10.60;;;;;;;-2.51;79.09;100805.72;1720914;82;21162;-67
2023/01/28 09:16:53;;;;;;;35.03;11.57;;;;;;;-2.48;78.74;100800.14;1745796;82;21161;-65
2023/01/28 09:19:23;;;;;;;25.85;11.48;;;;;;;-2.47;78.51;100799.17;1746021;82;21146;-65
2023/01/28 09:21:53;;;;;;;35.03;11.30;;;;;;;-2.54;78.10;100804.58;1745677;82;21578;-66
2023/01/28 09:24:36;;;;;;;28.57;11.80;;;;;;;-2.62;78.08;100804.59;1745712;82;21173;-64
2023/01/28 09:27:17;;;;;;;28.98;11.28;;;;;;;-2.65;78.15;100799.91;1709925;83;21248;-66
2023/01/28 09:29:47;;;;;;;39.18;13.20;;;;;;;-2.67;78.22;100804.52;1688552;85;21553;-66
2023/01/28 09:32:17;;;;;;;32.70;12.75;;;;;;;-2.67;78.76;100801.84;1725538;83;21129;-66
2023/01/28 09:34:49;;;;;;;28.98;12.70;;;;;;;-2.63;78.83;100795.31;1688493;83;21161;-66
2023/01/28 09:37:24;;;;;;;;;;;;;;;-2.62;78.87;100793.00;1728334;83;21560;-64
2023/01/28 09:39:54;;;;;;;29.50;12.30;;;;;;;-2.60;78.92;100793.31;1725777;83;20153;-65
2023/01/28 09:42:48;;;;;;;27.42;12.07;;;;;;;-2.57;78.89;100795.78;1725715;83;21151;-65
2023/01/28 09:45:26;;;;;;;28.40;12.70;;;;;;;-2.57;78.76;100786.88;1688595;85;21694;-66
2023/01/28 09:48:01;;;;;;;29.20;11.90;;;;;;;-2.64;78.66;100784.20;1725827;82;21137;-64
2023/01/28 09:50:40;;;;;;;30.40;13.18;;;;;;;-2.64;78.78;100773.47;1725813;83;21097;-66
2023/01/28 09:53:32;;;;;;;34.18;13.32;;;;;;;-2.58;79.08;100769.92;1696473;84;21327;-64
2023/01/28 09:56:10;;;;;;;32.98;14.10;;;;;;;-2.52;78.94;100765.96;1696751;84;21169;-64
2023/01/28 09:58:42;;;;;;;33.42;14.00;;;;;;;-2.62;78.69;100763.50;1696663;84;21633;-63
2023/01/28 10:01:37;;;;;;;42.25;14.35;;;;;;;-2.63;78.97;100760.44;1717659;82;21098;-65
2023/01/28 10:04:16;;;;;;;36.23;13.20;;;;;;;-2.61;79.04;100758.52;1653428;85;21625;-66
2023/01/28 10:06:58;;;;;;;27.50;12.80;;;;;;;-2.54;79.24;100750.45;1656122;86;21165;-66
2023/01/28 10:09:58;;;;;;;31.37;14.47;;;;;;;-2.45;79.24;100747.14;1661345;86;21609;-65
2023/01/28 10:12:59;;;;;;;36.23;13.48;;;;;;;-2.37;79.62;100752.83;1633821;86;21612;-65
2023/01/28 10:15:52;;;;;;;30.55;14.23;;;;;;;-2.29;79.22;100749.61;1639009;86;21234;-66
2023/01/28 10:18:54;;;;;;;30.17;13.95;;;;;;;-2.30;78.93;100746.06;1660824;86;21819;-65
2023/01/28 10:21:43;;;;;;;29.90;12.63;;;;;;;-2.31;78.78;100752.88;1653360;86;21137;-66
2023/01/28 10:24:25;;;;;;;28.62;12.25;;;;;;;-2.28;78.63;100747.30;1661516;86;21596;-65
2023/01/28 10:26:54;;;;;;;29.82;11.78;;;;;;;-2.31;78.27;100749.72;1661387;86;21223;-66
2023/01/28 10:29:31;;;;;;;33.02;11.97;;;;;;;-2.28;78.12;100740.59;1691288;84;21173;-66
2023/01/28 10:32:20;;;;;;;23.80;11.25;;;;;;;-2.29;77.95;100741.55;1665392;86;21156;-65
2023/01/28 10:34:51;;;;;;;47.35;13.48;;;;;;;-2.28;77.79;100740.11;1643179;86;21134;-67
2023/01/28 10:37:21;;;;;;;34.73;11.48;;;;;;;-2.29;77.57;100742.41;1667974;86;21177;-69
2023/01/28 10:39:58;;;;;;;26.48;11.53;;;;;;;-2.24;77.76;100736.24;1599727;87;21141;-68
2023/01/28 10:42:35;;;;;;;25.92;10.78;;;;;;;-2.19;77.62;100731.03;1667827;86;21133;-67
2023/01/28 10:45:24;;;;;;;22.52;9.28;;;;;;;-2.15;77.35;100732.05;1667944;86;21570;-66
2023/01/28 10:48:03;;;;;;;27.77;10.15;;;;;;;-2.11;77.09;100728.66;1643084;86;21126;-67
2023/01/28 10:50:34;;;;;;;22.87;10.15;;;;;;;-2.09;76.82;100718.68;1667644;86;21172;-66
2023/01/28 10:53:04;;;;;;;33.58;11.55;;;;;;;-2.05;76.49;100719.69;1667885;86;21110;-66
2023/01/28 10:55:47;;;;;;;19.50;9.30;;;;;;;-2.05;76.17;100717.48;1667697;86;21155;-66
2023/01/28 10:58:24;;;;;;;26.37;10.75;;;;;;;-2.01;76.19;100718.98;1640676;87;21177;-67
2023/01/28 11:01:00;;;;;;;;;;;;;;;-1.95;75.84;100708.70;1678397;84;21134;-67
2023/01/28 11:03:31;;;;;;;27.93;10.85;;;;;;;-1.93;75.83;100709.93;1695754;84;20506;-66
2023/01/28 11:06:00;;;;;;;29.63;10.72;;;;;;;-1.87;75.65;100705.45;1702178;83;21557;-66
2023/01/28 11:08:30;;;;;;;22.22;10.35;;;;;;;-1.87;75.35;100695.20;1684442;84;21562;-66
2023/01/28 11:11:25;;;;;;;25.15;10.58;;;;;;;-1.87;75.13;100685.31;1643457;87;21208;-66
2023/01/28 11:13:57;;;;;;;31.17;10.55;;;;;;;-1.88;74.95;100680.92;1673042;86;21198;-66
2023/01/28 11:16:27;;;;;;;27.00;10.70;;;;;;;-1.83;75.22;100684.61;1708553;83;21348;-67
2023/01/28 11:19:05;;;;;;;27.90;10.45;;;;;;;-1.64;76.19;100685.84;1731888;83;21620;-66
2023/01/28 11:21:35;;;;;;;27.87;10.68;;;;;;;-1.52;76.41;100679.19;1731960;83;21089;-66
2023/01/28 11:24:13;;;;;;;30.57;11.22;;;;;;;-1.36;76.20;100678.41;1620580;87;21156;-66
2023/01/28 11:26:49;;;;;;;25.25;10.85;;;;;;;-1.31;75.58;100678.44;1642003;87;21145;-66
2023/01/28 11:29:33;;;;;;;26.70;10.30;;;;;;;-1.26;74.93;100677.27;1641805;87;21225;-68
2023/01/28 11:32:02;;;;;;;28.47;10.90;;;;;;;-1.29;74.38;100674.33;1641912;87;21168;-66
2023/01/28 11:34:34;;;;;;;25.10;10.53;;;;;;;-1.36;73.82;100672.55;1642097;87;21273;-65
2023/01/28 11:37:15;;;;;;;31.57;10.60;;;;;;;-1.36;73.80;100673.89;1642060;87;21173;-66
2023/01/28 11:39:43;;;;;;;37.48;11.43;;;;;;;-1.35;73.66;100672.06;1641753;87;21240;-65
2023/01/28 11:42:21;;;;;;;29.42;11.70;;;;;;;-1.30;73.59;100668.58;1686199;83;21145;-65
2023/01/28 11:44:52;;;;;;;28.32;11.03;;;;;;;-1.26;73.55;100671.41;1731613;83;21146;-64
2023/01/28 11:47:49;;;;;;;30.88;11.63;;;;;;;-1.23;73.39;100667.63;1681015;83;21156;-67
2023/01/28 11:50:43;;;;;;;26.30;10.00;;;;;;;-1.22;73.26;100667.52;1728304;82;21165;-65
2023/01/28 11:53:34;;;;;;;27.22;10.85;;;;;;;-1.21;73.16;100659.82;1732245;83;21192;-66
2023/01/28 11:56:32;;;;;;;26.62;11.10;;;;;;;-1.19;73.11;100663.25;1731905;83;21157;-65
2023/01/28 11:59:45;;;;;;;31.02;10.82;;;;;;;-1.19;73.08;100659.22;1731644;83;21224;-65
2023/01/28 12:02:34;;;;;;;23.35;10.68;;;;;;;-1.16;73.12;100660.33;1718697;83;21177;-64
2023/01/28 12:05:43;;;;;;;26.70;11.00;;;;;;;-1.09;73.38;100657.55;1716185;83;21577;-65
2023/01/28 12:08:26;;;;;;;26.35;11.40;;;;;;;-1.05;72.95;100650.95;1688619;83;21627;-65
2023/01/28 12:11:09;;;;;;;27.13;10.80;;;;;;;-1.04;72.97;100648.64;1716350;83;21141;-64
2023/01/28 12:14:00;;;;;;;23.80;10.98;;;;;;;-1.00;73.02;100647.42;1711542;83;21162;-64
2023/01/28 12:16:34;;;;;;;27.25;11.38;;;;;;;-0.92;73.07;100651.36;1711785;83;21110;-66
2023/01/28 12:19:31;;;;;;;29.42;11.85;;;;;;;-0.87;72.94;100651.86;1726460;83;21635;-65